createdAt,value
2018-12-06T00:01:49.224Z,8.40
2018-12-06T00:04:19.998Z,8.33
2018-12-06T00:06:50.903Z,8.31
2018-12-06T00:09:21.875Z,8.31
2018-12-06T00:11:52.683Z,8.42
2018-12-06T00:14:23.633Z,8.42
2018-12-06T00:16:58.812Z,8.43
2018-12-06T00:19:29.651Z,8.34
2018-12-06T00:22:00.554Z,8.42
2018-12-06T00:24:31.330Z,8.46
2018-12-06T00:27:02.463Z,8.53
2018-12-06T00:29:33.188Z,8.50
2018-12-06T00:32:04.067Z,8.40
2018-12-06T00:34:34.962Z,8.29
2018-12-06T00:37:05.780Z,8.22
2018-12-06T00:39:36.710Z,8.18
2018-12-06T00:42:07.663Z,8.19
2018-12-06T00:44:38.535Z,8.20
2018-12-06T00:47:09.442Z,8.09
2018-12-06T00:49:40.253Z,7.99
2018-12-06T00:52:11.329Z,7.88
2018-12-06T00:54:42.477Z,7.82
2018-12-06T00:57:13.434Z,7.78
2018-12-06T00:59:44.251Z,7.71
2018-12-06T01:02:15.170Z,7.64
2018-12-06T01:04:46.229Z,7.60
2018-12-06T01:07:16.933Z,7.60
2018-12-06T01:09:47.724Z,7.59
2018-12-06T01:12:18.774Z,7.57
2018-12-06T01:14:49.556Z,7.55
2018-12-06T01:17:20.344Z,7.57
2018-12-06T01:19:51.026Z,7.58
2018-12-06T01:22:22.193Z,7.57
2018-12-06T01:24:53.267Z,7.58
2018-12-06T01:27:24.177Z,7.57
2018-12-06T01:29:56.359Z,7.57
2018-12-06T01:32:27.300Z,7.55
2018-12-06T01:34:58.310Z,7.55
2018-12-06T01:37:29.098Z,7.59
2018-12-06T01:39:59.950Z,7.63
2018-12-06T01:42:30.835Z,7.67
2018-12-06T01:45:01.621Z,7.61
2018-12-06T01:47:32.330Z,7.53
2018-12-06T01:50:04.520Z,7.41
2018-12-06T01:52:35.272Z,7.31
2018-12-06T01:55:07.167Z,7.22
2018-12-06T01:57:37.743Z,7.05
2018-12-06T02:00:09.833Z,6.88
2018-12-06T02:02:40.803Z,6.73
2018-12-06T02:05:11.708Z,6.61
2018-12-06T02:07:42.749Z,6.50
2018-12-06T02:10:13.527Z,6.43
2018-12-06T02:12:44.424Z,6.38
2018-12-06T02:15:15.274Z,6.30
2018-12-06T02:17:46.353Z,6.19
2018-12-06T02:20:18.008Z,6.08
2018-12-06T02:22:48.716Z,5.99
2018-12-06T02:25:19.508Z,5.92
2018-12-06T02:27:57.121Z,5.84
2018-12-06T02:30:28.110Z,5.79
2018-12-06T02:32:59.029Z,5.78
2018-12-06T02:35:29.984Z,5.70
2018-12-06T02:38:00.769Z,5.64
2018-12-06T02:40:31.453Z,5.60
2018-12-06T02:43:02.431Z,5.55
2018-12-06T02:45:33.469Z,5.50
2018-12-06T02:48:04.273Z,5.49
2018-12-06T02:50:35.170Z,5.43
2018-12-06T02:53:05.840Z,5.39
2018-12-06T02:55:36.627Z,5.42
2018-12-06T02:58:07.819Z,5.42
2018-12-06T03:00:38.591Z,5.45
2018-12-06T03:03:09.714Z,5.42
2018-12-06T03:05:40.413Z,5.40
2018-12-06T03:08:11.281Z,5.42
2018-12-06T03:10:42.731Z,5.50
2018-12-06T03:13:13.715Z,5.54
2018-12-06T03:15:44.706Z,5.52
2018-12-06T03:18:15.623Z,5.49
2018-12-06T03:20:46.205Z,5.53
2018-12-06T03:23:17.152Z,5.60
2018-12-06T03:25:48.022Z,5.71
2018-12-06T03:28:19.090Z,5.81
2018-12-06T03:30:50.713Z,5.92
2018-12-06T03:33:21.466Z,5.99
2018-12-06T03:35:52.392Z,6.06
2018-12-06T03:38:23.318Z,6.09
2018-12-06T03:40:54.125Z,6.10
2018-12-06T03:43:24.881Z,6.08
2018-12-06T03:45:55.620Z,6.01
2018-12-06T03:48:26.704Z,5.98
2018-12-06T03:50:57.457Z,6.00
2018-12-06T03:53:28.398Z,6.08
2018-12-06T03:55:59.528Z,6.14
2018-12-06T03:58:30.417Z,6.18
2018-12-06T04:01:01.136Z,6.17
2018-12-06T04:03:31.926Z,6.14
2018-12-06T04:06:02.615Z,6.15
2018-12-06T04:08:33.301Z,6.17
2018-12-06T04:11:04.242Z,6.17
2018-12-06T04:13:35.016Z,6.14
2018-12-06T04:16:05.909Z,6.14
2018-12-06T04:18:36.689Z,6.14
2018-12-06T04:21:07.609Z,6.15
2018-12-06T04:23:38.460Z,6.16
2018-12-06T04:26:09.387Z,6.20
2018-12-06T04:28:40.210Z,6.20
2018-12-06T04:31:10.942Z,6.21
2018-12-06T04:33:42.661Z,6.15
2018-12-06T04:36:13.519Z,6.06
2018-12-06T04:38:44.244Z,5.97
2018-12-06T04:41:14.894Z,5.91
2018-12-06T04:43:52.615Z,5.88
2018-12-06T04:46:23.881Z,5.92
2018-12-06T04:48:54.692Z,5.97
2018-12-06T04:51:25.561Z,6.02
2018-12-06T04:53:56.449Z,6.07
2018-12-06T04:56:27.317Z,6.03
2018-12-06T04:58:58.171Z,5.87
2018-12-06T05:01:29.083Z,5.95
2018-12-06T05:04:00.079Z,5.98
2018-12-06T05:06:30.786Z,5.92
2018-12-06T05:09:01.504Z,5.95
2018-12-06T05:11:32.311Z,6.00
2018-12-06T05:14:03.605Z,6.09
2018-12-06T05:16:35.000Z,6.15
2018-12-06T05:19:05.925Z,6.15
2018-12-06T05:21:36.591Z,6.18
2018-12-06T05:24:07.373Z,6.24
2018-12-06T05:26:37.913Z,6.21
2018-12-06T05:29:08.543Z,6.22
2018-12-06T05:31:39.611Z,6.25
2018-12-06T05:34:11.450Z,6.32
2018-12-06T05:36:42.798Z,6.40
2018-12-06T05:39:14.587Z,6.47
2018-12-06T05:41:45.315Z,6.50
2018-12-06T05:44:16.169Z,6.65
2018-12-06T05:46:47.125Z,6.73
2018-12-06T05:49:18.851Z,6.81
2018-12-06T05:51:49.790Z,6.88
2018-12-06T05:54:20.894Z,6.95
2018-12-06T05:56:51.832Z,7.01
2018-12-06T05:59:22.794Z,7.07
2018-12-06T06:01:53.721Z,7.17
2018-12-06T06:04:24.504Z,7.39
2018-12-06T06:06:58.499Z,7.45
2018-12-06T06:09:29.289Z,7.49
2018-12-06T06:12:00.276Z,7.52
2018-12-06T06:14:31.095Z,7.67
2018-12-06T06:17:02.298Z,7.78
2018-12-06T06:19:33.050Z,7.94
2018-12-06T06:22:03.851Z,7.92
2018-12-06T06:24:34.725Z,7.86
2018-12-06T06:27:05.568Z,7.75
2018-12-06T06:29:36.472Z,7.67
2018-12-06T06:32:07.428Z,7.54
2018-12-06T06:34:38.208Z,7.47
2018-12-06T06:37:09.061Z,7.41
2018-12-06T06:39:40.820Z,7.35
2018-12-06T06:42:11.536Z,7.35
2018-12-06T06:44:42.233Z,7.38
2018-12-06T06:47:12.978Z,7.41
2018-12-06T06:49:43.895Z,7.44
2018-12-06T06:52:14.731Z,7.45
2018-12-06T06:54:45.710Z,7.48
2018-12-06T06:57:16.648Z,7.51
2018-12-06T06:59:47.437Z,7.59
2018-12-06T07:02:18.365Z,7.78
2018-12-06T07:04:49.777Z,7.89
2018-12-06T07:07:21.456Z,7.98
2018-12-06T07:09:52.182Z,8.06
2018-12-06T07:12:23.070Z,8.08
2018-12-06T07:14:54.052Z,8.05
2018-12-06T07:17:25.045Z,7.88
2018-12-06T07:19:56.166Z,7.83
2018-12-06T07:22:27.009Z,7.86
2018-12-06T07:24:58.078Z,7.90
2018-12-06T07:27:30.348Z,7.94
2018-12-06T07:30:01.159Z,7.98
2018-12-06T07:32:32.261Z,7.99
2018-12-06T07:35:03.325Z,8.03
2018-12-06T07:37:34.087Z,8.09
2018-12-06T07:40:05.215Z,8.13
2018-12-06T07:42:37.210Z,8.16
2018-12-06T07:45:08.633Z,8.18
2018-12-06T07:47:39.781Z,8.19
2018-12-06T07:50:10.874Z,8.20
2018-12-06T07:52:41.808Z,8.27
2018-12-06T07:55:12.528Z,8.32
2018-12-06T07:57:44.404Z,8.45
2018-12-06T08:00:16.581Z,8.55
2018-12-06T08:02:47.373Z,8.59
2018-12-06T08:05:18.151Z,8.65
2018-12-06T08:07:48.977Z,8.66
2018-12-06T08:10:19.913Z,8.72
2018-12-06T08:12:50.734Z,8.79
2018-12-06T08:15:21.928Z,8.93
2018-12-06T08:17:53.637Z,9.04
2018-12-06T08:20:24.766Z,9.11
2018-12-06T08:22:56.687Z,9.12
2018-12-06T08:25:27.790Z,9.12
2018-12-06T08:27:58.836Z,9.14
2018-12-06T08:30:30.007Z,9.24
2018-12-06T08:33:01.023Z,9.37
2018-12-06T08:35:31.923Z,9.54
2018-12-06T08:38:03.254Z,9.80
2018-12-06T08:40:34.283Z,10.05
2018-12-06T08:43:05.157Z,10.38
2018-12-06T08:45:36.170Z,10.68
2018-12-06T08:48:07.170Z,10.68
2018-12-06T08:50:38.273Z,10.88
2018-12-06T08:53:09.311Z,11.10
2018-12-06T08:55:40.384Z,11.47
2018-12-06T08:58:11.201Z,11.64
2018-12-06T09:00:41.911Z,11.17
2018-12-06T09:03:12.839Z,11.12
2018-12-06T09:05:43.785Z,11.79
2018-12-06T09:08:14.685Z,12.10
2018-12-06T09:10:51.531Z,12.15
2018-12-06T09:13:19.662Z,12.22
2018-12-06T09:15:50.731Z,12.01
2018-12-06T09:18:22.166Z,11.89
2018-12-06T09:20:53.086Z,12.01
2018-12-06T09:23:24.080Z,12.24
2018-12-06T09:25:55.743Z,12.27
2018-12-06T09:28:26.719Z,12.30
2018-12-06T09:31:01.017Z,12.53
2018-12-06T09:33:31.413Z,13.15
2018-12-06T09:36:02.201Z,13.30
2018-12-06T09:38:33.050Z,13.30
2018-12-06T09:41:03.971Z,12.98
2018-12-06T09:43:34.706Z,12.96
2018-12-06T09:46:05.922Z,12.82
2018-12-06T09:48:36.714Z,12.70
2018-12-06T09:51:07.639Z,12.31
2018-12-06T09:53:38.825Z,12.08
2018-12-06T09:56:10.356Z,12.25
2018-12-06T09:58:41.175Z,12.30
2018-12-06T10:01:12.279Z,12.30
2018-12-06T10:03:43.233Z,12.21
2018-12-06T10:06:14.143Z,12.08
2018-12-06T10:08:45.208Z,11.93
2018-12-06T10:11:16.428Z,11.72
2018-12-06T10:13:47.689Z,11.67
2018-12-06T10:16:18.677Z,11.82
2018-12-06T10:18:49.621Z,11.78
2018-12-06T10:21:20.508Z,11.72
2018-12-06T10:23:51.679Z,11.76
2018-12-06T10:26:22.461Z,11.81
2018-12-06T10:28:53.481Z,11.75
2018-12-06T10:31:24.534Z,11.84
2018-12-06T10:33:55.459Z,11.73
2018-12-06T10:36:26.308Z,11.65
2018-12-06T10:38:56.964Z,11.64
2018-12-06T10:41:27.883Z,11.64
2018-12-06T10:43:58.836Z,11.69
2018-12-06T10:46:30.009Z,11.68
2018-12-06T10:49:00.933Z,11.70
2018-12-06T10:51:51.540Z,11.67
2018-12-06T10:54:22.946Z,11.67
2018-12-06T10:56:54.298Z,11.72
2018-12-06T10:59:25.331Z,11.78
2018-12-06T11:02:01.101Z,11.85
2018-12-06T11:04:37.456Z,11.86
2018-12-06T11:07:09.339Z,11.88
2018-12-06T11:09:40.450Z,11.71
2018-12-06T11:12:11.356Z,11.79
2018-12-06T11:14:42.488Z,11.82
2018-12-06T11:17:13.466Z,11.83
2018-12-06T11:19:44.407Z,11.84
2018-12-06T11:22:15.297Z,11.89
2018-12-06T11:24:46.260Z,11.93
2018-12-06T11:27:17.184Z,12.00
2018-12-06T11:29:48.063Z,12.09
2018-12-06T11:32:19.538Z,12.19
2018-12-06T11:34:50.373Z,12.26
2018-12-06T11:37:22.070Z,12.28
2018-12-06T11:39:52.937Z,12.27
2018-12-06T11:42:23.909Z,12.27
2018-12-06T11:44:54.922Z,12.26
2018-12-06T11:47:25.714Z,12.27
2018-12-06T11:49:56.716Z,12.28
2018-12-06T11:52:27.763Z,12.30
2018-12-06T11:54:59.859Z,12.29
2018-12-06T11:57:30.585Z,12.30
2018-12-06T12:00:01.817Z,12.33
2018-12-06T12:02:32.795Z,12.34
2018-12-06T12:05:04.106Z,12.30
2018-12-06T12:07:35.809Z,12.27
2018-12-06T12:10:07.603Z,12.26
2018-12-06T12:12:38.497Z,12.27
2018-12-06T12:15:10.438Z,12.30
2018-12-06T12:17:41.582Z,12.34
2018-12-06T12:20:12.595Z,12.38
2018-12-06T12:22:43.584Z,12.41
2018-12-06T12:25:14.537Z,12.43
2018-12-06T12:27:45.472Z,12.46
2018-12-06T12:30:16.698Z,12.48
2018-12-06T12:32:47.675Z,12.48
2018-12-06T12:35:19.409Z,12.48
2018-12-06T12:37:50.465Z,12.47
2018-12-06T12:40:21.700Z,12.46
2018-12-06T12:42:53.023Z,12.47
2018-12-06T12:45:23.943Z,12.46
2018-12-06T12:47:54.965Z,12.44
2018-12-06T12:50:25.854Z,12.41
2018-12-06T12:52:57.201Z,12.40
2018-12-06T12:55:28.009Z,12.39
2018-12-06T12:57:59.597Z,12.40
2018-12-06T13:00:31.449Z,12.42
2018-12-06T13:03:03.881Z,12.39
2018-12-06T13:05:34.656Z,12.42
2018-12-06T13:08:05.504Z,12.39
2018-12-06T13:10:36.962Z,12.44
2018-12-06T13:13:07.829Z,12.53
2018-12-06T13:15:38.827Z,12.56
2018-12-06T13:18:10.268Z,12.62
2018-12-06T13:20:41.316Z,12.61
2018-12-06T13:23:12.110Z,12.59
2018-12-06T13:25:44.367Z,12.59
2018-12-06T13:28:15.828Z,12.60
2018-12-06T13:30:46.856Z,12.59
2018-12-06T13:33:17.708Z,12.57
2018-12-06T13:35:49.173Z,12.58
2018-12-06T13:38:21.367Z,12.58
2018-12-06T13:40:52.749Z,12.55
2018-12-06T13:43:25.237Z,12.46
2018-12-06T13:45:56.790Z,12.37
2018-12-06T13:48:30.119Z,12.30
2018-12-06T13:51:01.973Z,12.21
2018-12-06T13:53:33.365Z,12.13
2018-12-06T13:56:05.096Z,12.08
2018-12-06T13:58:36.323Z,12.03
2018-12-06T14:01:07.504Z,11.96
2018-12-06T14:03:39.406Z,11.91
2018-12-06T14:06:10.063Z,11.86
2018-12-06T14:08:41.077Z,11.81
2018-12-06T14:11:12.153Z,11.78
2018-12-06T14:13:43.459Z,11.74
2018-12-06T14:16:14.287Z,11.71
2018-12-06T14:18:45.254Z,11.66
2018-12-06T14:21:16.265Z,11.63
2018-12-06T14:23:47.388Z,11.58
2018-12-06T14:26:18.583Z,11.50
2018-12-06T14:28:49.570Z,11.45
2018-12-06T14:31:20.903Z,11.37
2018-12-06T14:33:51.789Z,11.29
2018-12-06T14:36:22.705Z,11.22
2018-12-06T14:38:53.895Z,11.11
2018-12-06T14:41:25.311Z,11.02
2018-12-06T14:43:56.683Z,11.00
2018-12-06T14:46:28.341Z,10.95
2018-12-06T14:48:59.482Z,10.92
2018-12-06T14:51:31.237Z,10.91
2018-12-06T14:54:02.582Z,10.89
2018-12-06T14:56:34.413Z,10.87
2018-12-06T14:59:06.261Z,10.87
2018-12-06T15:01:37.165Z,10.85
2018-12-06T15:04:08.366Z,10.82
2018-12-06T15:06:39.538Z,10.82
2018-12-06T15:09:12.520Z,10.82
2018-12-06T15:11:43.558Z,10.81
2018-12-06T15:14:14.500Z,10.76
2018-12-06T15:16:45.771Z,10.67
2018-12-06T15:19:17.303Z,10.60
2018-12-06T15:21:49.150Z,10.47
2018-12-06T15:24:20.678Z,10.42
2018-12-06T15:26:51.886Z,10.39
2018-12-06T15:29:22.973Z,10.35
2018-12-06T15:31:54.175Z,10.35
2018-12-06T15:34:25.172Z,10.36
2018-12-06T15:36:56.236Z,10.37
2018-12-06T15:39:27.012Z,10.35
2018-12-06T15:41:58.027Z,10.36
2018-12-06T15:44:29.004Z,10.35
2018-12-06T15:46:59.758Z,10.35
2018-12-06T15:49:31.899Z,10.35
2018-12-06T15:52:02.977Z,10.32
2018-12-06T15:54:33.983Z,10.32
2018-12-06T15:57:05.117Z,10.31
2018-12-06T15:59:36.407Z,10.29
2018-12-06T16:02:07.919Z,10.26
2018-12-06T16:04:39.102Z,10.25
2018-12-06T16:07:10.033Z,10.24
2018-12-06T16:09:41.502Z,10.24
2018-12-06T16:12:12.252Z,10.23
2018-12-06T16:14:43.502Z,10.23
2018-12-06T16:17:14.754Z,10.23
2018-12-06T16:19:45.742Z,10.22
2018-12-06T16:22:17.415Z,10.19
2018-12-06T16:24:48.475Z,10.18
2018-12-06T16:27:20.405Z,10.17
2018-12-06T16:29:51.773Z,10.16
2018-12-06T16:32:23.555Z,10.16
2018-12-06T16:34:54.648Z,10.13
2018-12-06T16:37:25.850Z,10.10
2018-12-06T16:39:56.652Z,10.11
2018-12-06T16:42:28.089Z,10.13
2018-12-06T16:44:59.684Z,10.10
2018-12-06T16:47:31.765Z,10.07
2018-12-06T16:50:02.800Z,10.04
2018-12-06T16:52:33.962Z,10.00
2018-12-06T16:55:05.727Z,9.97
2018-12-06T16:57:36.916Z,9.94
2018-12-06T17:00:14.666Z,9.91
2018-12-06T17:02:46.368Z,9.91
2018-12-06T17:05:17.936Z,9.90
2018-12-06T17:07:49.998Z,9.89
2018-12-06T17:10:20.981Z,9.84
2018-12-06T17:12:51.847Z,9.80
2018-12-06T17:15:22.963Z,9.77
2018-12-06T17:17:53.844Z,9.68
2018-12-06T17:20:25.873Z,9.62
2018-12-06T17:22:57.005Z,9.61
2018-12-06T17:25:28.622Z,9.61
2018-12-06T17:27:59.815Z,9.60
2018-12-06T17:30:30.905Z,9.55
2018-12-06T17:33:01.899Z,9.49
2018-12-06T17:35:33.146Z,9.44
2018-12-06T17:38:04.203Z,9.35
2018-12-06T17:40:36.081Z,9.25
2018-12-06T17:43:07.154Z,9.22
2018-12-06T17:45:38.601Z,9.13
2018-12-06T17:48:10.336Z,9.04
2018-12-06T17:50:41.478Z,8.95
2018-12-06T17:53:12.723Z,8.83
2018-12-06T17:55:55.721Z,8.74
2018-12-06T17:58:26.806Z,8.73
2018-12-06T18:00:57.668Z,8.68
2018-12-06T18:03:28.860Z,8.65
2018-12-06T18:06:00.073Z,8.64
2018-12-06T18:08:31.760Z,8.65
2018-12-06T18:11:02.935Z,8.69
2018-12-06T18:13:34.160Z,8.72
2018-12-06T18:16:05.335Z,8.75
2018-12-06T18:18:40.365Z,8.72
2018-12-06T18:21:09.928Z,8.65
2018-12-06T18:23:41.846Z,8.60
2018-12-06T18:26:12.704Z,8.58
2018-12-06T18:28:43.652Z,8.48
2018-12-06T18:31:14.800Z,8.40
2018-12-06T18:33:45.907Z,8.31
2018-12-06T18:36:17.356Z,8.20
2018-12-06T18:38:48.541Z,8.12
2018-12-06T18:41:20.431Z,8.05
2018-12-06T18:43:51.857Z,7.99
2018-12-06T18:46:23.206Z,7.89
2018-12-06T18:48:55.225Z,7.82
2018-12-06T18:51:26.675Z,7.81
2018-12-06T18:53:58.456Z,7.74
2018-12-06T18:56:30.099Z,7.68
2018-12-06T18:59:01.818Z,7.74
2018-12-06T19:01:33.460Z,7.72
2018-12-06T19:04:05.561Z,7.72
2018-12-06T19:06:45.140Z,7.67
2018-12-06T19:09:16.395Z,7.59
2018-12-06T19:11:47.575Z,7.62
2018-12-06T19:14:21.765Z,7.60
2018-12-06T19:16:51.954Z,7.54
2018-12-06T19:19:23.202Z,7.50
2018-12-06T19:21:54.532Z,7.48
2018-12-06T19:24:25.808Z,7.47
2018-12-06T19:26:57.925Z,7.46
2018-12-06T19:29:29.906Z,7.40
2018-12-06T19:32:02.174Z,7.29
2018-12-06T19:34:33.527Z,7.25
2018-12-06T19:37:04.884Z,7.27
2018-12-06T19:39:38.209Z,7.39
2018-12-06T19:42:13.116Z,7.28
2018-12-06T19:44:46.777Z,7.17
2018-12-06T19:47:21.364Z,7.12
2018-12-06T19:49:54.477Z,7.06
2018-12-06T19:52:28.451Z,6.96
2018-12-06T19:55:01.393Z,6.88
2018-12-06T19:57:34.322Z,6.88
2018-12-06T20:00:08.445Z,6.83
2018-12-06T20:02:40.919Z,6.78
2018-12-06T20:05:13.967Z,6.69
2018-12-06T20:07:46.014Z,6.55
2018-12-06T20:10:18.121Z,6.39
2018-12-06T20:12:51.534Z,6.31
2018-12-06T20:15:23.255Z,6.19
2018-12-06T20:17:56.937Z,6.11
2018-12-06T20:20:28.772Z,6.04
2018-12-06T20:23:00.754Z,6.08
2018-12-06T20:25:32.984Z,6.14
2018-12-06T20:28:05.163Z,6.10
2018-12-06T20:30:37.123Z,6.03
2018-12-06T20:33:10.957Z,5.96
2018-12-06T20:35:43.652Z,5.97
2018-12-06T20:38:17.179Z,5.97
2018-12-06T20:40:48.848Z,5.96
2018-12-06T20:43:21.655Z,5.97
2018-12-06T20:45:53.722Z,6.06
2018-12-06T20:48:25.657Z,6.06
2018-12-06T20:50:58.155Z,6.04
2018-12-06T20:53:30.606Z,6.08
2018-12-06T20:56:02.650Z,6.14
2018-12-06T20:58:35.543Z,6.26
2018-12-06T21:01:08.244Z,6.25
2018-12-06T21:03:41.688Z,6.12
2018-12-06T21:06:13.432Z,6.01
2018-12-06T21:08:46.005Z,5.90
2018-12-06T21:11:17.817Z,5.87
2018-12-06T21:13:48.920Z,5.85
2018-12-06T21:16:20.198Z,5.85
2018-12-06T21:18:53.083Z,5.79
2018-12-06T21:21:25.918Z,5.63
2018-12-06T21:23:57.173Z,5.66
2018-12-06T21:26:28.520Z,5.62
2018-12-06T21:28:59.750Z,5.65
2018-12-06T21:31:31.290Z,5.69
2018-12-06T21:34:03.113Z,5.78
2018-12-06T21:36:35.111Z,5.70
2018-12-06T21:39:09.755Z,5.65
2018-12-06T21:41:41.288Z,5.91
2018-12-06T21:44:12.746Z,5.85
2018-12-06T21:46:44.459Z,5.67
2018-12-06T21:49:16.579Z,5.45
2018-12-06T21:51:48.816Z,5.40
2018-12-06T21:54:20.327Z,5.39
2018-12-06T21:56:51.603Z,5.36
2018-12-06T21:59:24.195Z,5.32
2018-12-06T22:02:10.274Z,5.26
2018-12-06T22:04:42.662Z,5.24
2018-12-06T22:07:14.323Z,5.27
2018-12-06T22:09:47.698Z,5.24
2018-12-06T22:12:20.662Z,5.22
2018-12-06T22:14:52.904Z,5.25
2018-12-06T22:17:24.331Z,5.25
2018-12-06T22:19:56.524Z,5.31
2018-12-06T22:22:28.355Z,5.38
2018-12-06T22:24:59.925Z,5.48
2018-12-06T22:27:31.384Z,5.49
2018-12-06T22:30:03.023Z,5.49
2018-12-06T22:32:34.789Z,5.54
2018-12-06T22:35:06.306Z,5.53
2018-12-06T22:37:38.013Z,5.55
2018-12-06T22:40:09.679Z,5.51
2018-12-06T22:42:40.820Z,5.41
2018-12-06T22:46:20.110Z,5.27
2018-12-06T22:48:51.492Z,5.18
2018-12-06T22:51:24.414Z,5.01
2018-12-06T22:53:56.270Z,5.06
2018-12-06T22:56:27.762Z,4.98
2018-12-06T22:58:59.226Z,4.87
2018-12-06T23:01:35.233Z,4.92
2018-12-06T23:04:06.258Z,4.93
2018-12-06T23:06:37.603Z,5.13
2018-12-06T23:09:12.224Z,5.21
2018-12-06T23:11:46.077Z,5.10
2018-12-06T23:14:17.132Z,4.98
2018-12-06T23:16:48.179Z,4.95
2018-12-06T23:19:19.335Z,5.02
2018-12-06T23:21:50.094Z,4.86
2018-12-06T23:24:22.268Z,4.77
2018-12-06T23:26:53.068Z,4.72
2018-12-06T23:29:24.128Z,4.53
2018-12-06T23:31:54.998Z,4.44
2018-12-06T23:34:25.847Z,4.39
2018-12-06T23:36:56.647Z,4.42
2018-12-06T23:39:28.492Z,4.41
2018-12-06T23:41:59.437Z,4.42
2018-12-06T23:44:30.268Z,4.45
2018-12-06T23:47:00.927Z,4.47
2018-12-06T23:49:31.835Z,4.46
2018-12-06T23:52:02.597Z,4.44
2018-12-06T23:54:33.327Z,4.45
2018-12-06T23:57:04.264Z,4.49
2018-12-06T23:59:35.255Z,4.55
